createdAt,value
2022-12-05T00:01:43.664Z,3.23
2022-12-05T00:04:12.881Z,3.43
2022-12-05T00:06:41.587Z,3.36
2022-12-05T00:09:10.597Z,3.25
2022-12-05T00:11:39.408Z,3.11
2022-12-05T00:14:08.640Z,2.94
2022-12-05T00:16:37.772Z,2.86
2022-12-05T00:19:06.726Z,2.90
2022-12-05T00:21:35.381Z,2.69
2022-12-05T00:24:04.187Z,2.63
2022-12-05T00:26:31.876Z,2.55
2022-12-05T00:28:58.896Z,2.47
2022-12-05T00:31:27.943Z,2.51
2022-12-05T00:33:57.563Z,2.50
2022-12-05T00:36:27.888Z,2.50
2022-12-05T00:38:56.168Z,2.47
2022-12-05T00:41:26.672Z,2.55
2022-12-05T00:43:53.897Z,2.48
2022-12-05T00:46:24.071Z,2.49
2022-12-05T00:48:53.120Z,2.45
2022-12-05T00:51:23.272Z,2.41
2022-12-05T00:53:50.618Z,2.42
2022-12-05T00:56:21.776Z,2.49
2022-12-05T00:58:49.112Z,2.39
2022-12-05T01:01:21.601Z,2.26
2022-12-05T01:03:49.202Z,2.24
2022-12-05T01:06:16.405Z,2.19
2022-12-05T01:08:43.580Z,2.20
2022-12-05T01:11:11.379Z,2.16
2022-12-05T01:13:38.185Z,2.19
2022-12-05T01:16:05.246Z,2.14
2022-12-05T01:18:32.196Z,2.14
2022-12-05T01:21:02.966Z,2.16
2022-12-05T01:23:33.016Z,2.05
2022-12-05T01:26:05.564Z,2.23
2022-12-05T01:28:32.148Z,2.17
2022-12-05T01:30:59.690Z,2.12
2022-12-05T01:33:26.252Z,2.01
2022-12-05T01:35:52.762Z,1.96
2022-12-05T01:38:19.299Z,2.07
2022-12-05T01:40:45.817Z,2.30
2022-12-05T01:43:18.234Z,2.34
2022-12-05T01:45:46.709Z,2.33
2022-12-05T01:48:21.686Z,2.29
2022-12-05T01:50:49.632Z,2.23
2022-12-05T01:53:17.836Z,2.17
2022-12-05T01:55:46.096Z,2.16
2022-12-05T01:58:13.120Z,2.12
2022-12-05T02:00:40.147Z,2.12
2022-12-05T02:03:09.697Z,2.10
2022-12-05T02:05:37.486Z,2.23
2022-12-05T02:08:07.680Z,2.26
2022-12-05T02:10:38.942Z,2.21
2022-12-05T02:13:34.762Z,2.16
2022-12-05T02:16:18.562Z,2.14
2022-12-05T02:19:20.954Z,2.20
2022-12-05T02:22:08.625Z,2.16
2022-12-05T02:24:56.791Z,2.21
2022-12-05T02:27:54.833Z,2.21
2022-12-05T02:30:24.556Z,2.08
2022-12-05T02:33:24.470Z,2.05
2022-12-05T02:36:06.466Z,2.08
2022-12-05T02:39:16.956Z,2.02
2022-12-05T02:42:05.144Z,2.15
2022-12-05T02:44:39.151Z,2.15
2022-12-05T02:47:08.287Z,2.02
2022-12-05T02:49:37.123Z,1.86
2022-12-05T02:52:09.993Z,1.87
2022-12-05T02:54:42.832Z,1.75
2022-12-05T02:57:11.737Z,1.76
2022-12-05T02:59:38.265Z,1.74
2022-12-05T03:02:05.502Z,1.68
2022-12-05T03:04:34.446Z,1.69
2022-12-05T03:07:05.966Z,1.70
2022-12-05T03:09:44.846Z,1.64
2022-12-05T03:12:16.984Z,1.58
2022-12-05T03:14:49.754Z,1.55
2022-12-05T03:17:24.621Z,1.58
2022-12-05T03:20:27.340Z,1.59
2022-12-05T03:23:19.607Z,1.47
2022-12-05T03:26:17.876Z,1.39
2022-12-05T03:28:55.839Z,1.39
2022-12-05T03:31:38.155Z,1.42
2022-12-05T03:34:08.402Z,1.57
2022-12-05T03:36:42.583Z,1.59
2022-12-05T03:39:18.565Z,1.48
2022-12-05T03:42:14.269Z,1.42
2022-12-05T03:45:03.642Z,1.32
2022-12-05T03:47:53.004Z,1.28
2022-12-05T03:50:25.467Z,1.39
2022-12-05T03:53:19.665Z,1.37
2022-12-05T03:55:54.846Z,1.14
2022-12-05T03:58:28.033Z,1.27
2022-12-05T04:00:57.681Z,1.22
2022-12-05T04:03:39.348Z,1.22
2022-12-05T04:06:23.195Z,1.21
2022-12-05T04:09:04.454Z,1.15
2022-12-05T04:11:37.516Z,1.12
2022-12-05T04:14:13.654Z,1.05
2022-12-05T04:17:04.521Z,1.06
2022-12-05T04:20:03.701Z,1.04
2022-12-05T04:22:30.587Z,0.96
2022-12-05T04:25:18.641Z,0.90
2022-12-05T04:27:53.972Z,0.91
2022-12-05T04:30:24.510Z,0.79
2022-12-05T04:33:16.555Z,0.71
2022-12-05T04:36:14.068Z,0.66
2022-12-05T04:38:51.547Z,0.60
2022-12-05T04:41:27.152Z,0.63
2022-12-05T04:43:58.050Z,0.69
2022-12-05T04:46:25.328Z,1.10
2022-12-05T04:49:02.365Z,0.96
2022-12-05T04:51:32.806Z,0.77
2022-12-05T04:54:04.760Z,0.81
2022-12-05T04:56:36.286Z,0.73
2022-12-05T04:59:02.932Z,0.73
2022-12-05T05:01:35.908Z,0.68
2022-12-05T05:04:12.205Z,0.68
2022-12-05T05:06:42.217Z,0.72
2022-12-05T05:09:11.306Z,0.87
2022-12-05T05:11:38.048Z,0.91
2022-12-05T05:14:05.397Z,1.00
2022-12-05T05:16:37.843Z,1.04
2022-12-05T05:19:05.818Z,1.08
2022-12-05T05:21:35.481Z,1.10
2022-12-05T05:24:03.418Z,1.29
2022-12-05T05:26:31.538Z,1.33
2022-12-05T05:28:58.643Z,1.47
2022-12-05T05:31:25.446Z,1.63
2022-12-05T05:33:53.745Z,1.66
2022-12-05T05:36:21.902Z,1.68
2022-12-05T05:38:50.600Z,1.65
2022-12-05T05:41:22.900Z,1.66
2022-12-05T05:43:50.656Z,1.73
2022-12-05T05:46:21.117Z,1.77
2022-12-05T05:48:48.004Z,1.78
2022-12-05T05:51:16.318Z,1.78
2022-12-05T05:53:46.259Z,1.98
2022-12-05T05:56:21.237Z,1.94
2022-12-05T05:58:54.825Z,1.79
2022-12-05T06:01:21.589Z,1.76
2022-12-05T06:03:48.818Z,1.77
2022-12-05T06:06:16.197Z,1.86
2022-12-05T06:08:44.706Z,1.94
2022-12-05T06:11:13.589Z,1.80
2022-12-05T06:13:41.478Z,1.85
2022-12-05T06:16:11.975Z,1.74
2022-12-05T06:18:38.738Z,1.71
2022-12-05T06:21:11.802Z,1.76
2022-12-05T06:23:43.581Z,1.90
2022-12-05T06:26:13.596Z,1.87
2022-12-05T06:28:42.041Z,1.83
2022-12-05T06:31:14.837Z,1.80
2022-12-05T06:33:42.880Z,1.78
2022-12-05T06:36:13.217Z,1.79
2022-12-05T06:38:42.215Z,1.99
2022-12-05T06:41:13.859Z,1.95
2022-12-05T06:43:42.260Z,1.76
2022-12-05T06:46:12.009Z,1.63
2022-12-05T06:48:38.703Z,1.67
2022-12-05T06:51:07.030Z,1.69
2022-12-05T06:53:33.640Z,1.75
2022-12-05T06:56:05.780Z,1.77
2022-12-05T06:58:32.293Z,1.58
2022-12-05T07:01:17.453Z,1.53
2022-12-05T07:03:44.218Z,1.67
2022-12-05T07:06:15.465Z,1.66
2022-12-05T07:08:43.373Z,1.77
2022-12-05T07:11:12.872Z,1.68
2022-12-05T07:13:39.497Z,1.65
2022-12-05T07:16:07.377Z,1.60
2022-12-05T07:18:34.883Z,1.50
2022-12-05T07:21:12.874Z,1.43
2022-12-05T07:23:42.863Z,1.52
2022-12-05T07:26:13.464Z,1.65
2022-12-05T07:28:40.042Z,1.63
2022-12-05T07:31:16.200Z,1.64
2022-12-05T07:33:43.781Z,1.66
2022-12-05T07:36:16.922Z,1.65
2022-12-05T07:38:44.711Z,1.93
2022-12-05T07:41:17.891Z,2.59
2022-12-05T07:43:44.418Z,2.96
2022-12-05T07:46:16.220Z,2.79
2022-12-05T07:48:48.118Z,3.34
2022-12-05T07:51:14.980Z,4.20
2022-12-05T07:53:46.587Z,4.92
2022-12-05T07:56:17.031Z,5.60
2022-12-05T07:58:45.694Z,5.75
2022-12-05T08:01:18.349Z,5.71
2022-12-05T08:03:45.753Z,5.61
2022-12-05T08:06:17.738Z,5.46
2022-12-05T08:08:45.064Z,5.45
2022-12-05T08:11:18.039Z,5.71
2022-12-05T08:13:45.276Z,5.73
2022-12-05T08:16:15.573Z,6.19
2022-12-05T08:18:43.724Z,6.48
2022-12-05T08:21:13.654Z,6.88
2022-12-05T08:23:42.429Z,7.20
2022-12-05T08:26:13.497Z,7.12
2022-12-05T08:28:40.216Z,6.68
2022-12-05T08:31:16.299Z,6.06
2022-12-05T08:33:43.984Z,5.59
2022-12-05T08:36:15.558Z,5.38
2022-12-05T08:38:46.210Z,5.53
2022-12-05T08:41:16.473Z,6.17
2022-12-05T08:43:47.235Z,6.89
2022-12-05T08:46:13.832Z,7.38
2022-12-05T08:48:44.662Z,7.80
2022-12-05T08:51:13.658Z,7.99
2022-12-05T08:53:44.808Z,7.95
2022-12-05T08:56:13.788Z,8.09
2022-12-05T08:58:41.555Z,7.91
2022-12-05T09:01:16.639Z,7.49
2022-12-05T09:03:47.851Z,7.19
2022-12-05T09:06:18.858Z,7.15
2022-12-05T09:08:49.876Z,7.43
2022-12-05T09:11:19.950Z,7.88
2022-12-05T09:13:47.343Z,8.24
2022-12-05T09:16:20.403Z,8.57
2022-12-05T09:18:48.753Z,8.86
2022-12-05T09:21:18.082Z,9.14
2022-12-05T09:23:45.083Z,9.48
2022-12-05T09:26:14.633Z,9.57
2022-12-05T09:28:42.819Z,9.61
2022-12-05T09:31:13.653Z,9.87
2022-12-05T09:33:41.325Z,10.05
2022-12-05T09:36:13.559Z,10.19
2022-12-05T09:38:43.064Z,10.39
2022-12-05T09:41:48.284Z,10.53
2022-12-05T09:44:55.397Z,10.57
2022-12-05T09:47:22.028Z,10.84
2022-12-05T09:49:59.842Z,10.82
2022-12-05T09:52:31.545Z,11.05
2022-12-05T09:55:06.489Z,11.28
2022-12-05T09:57:41.630Z,11.40
2022-12-05T10:00:10.353Z,11.45
2022-12-05T10:02:47.679Z,11.60
2022-12-05T10:05:24.552Z,11.39
2022-12-05T10:08:03.304Z,11.29
2022-12-05T10:10:45.477Z,10.67
2022-12-05T10:13:59.047Z,10.08
2022-12-05T10:17:01.059Z,10.20
2022-12-05T10:19:36.088Z,10.26
2022-12-05T10:22:17.319Z,10.10
2022-12-05T10:24:52.157Z,10.33
2022-12-05T10:27:24.582Z,10.37
2022-12-05T10:29:59.925Z,10.55
2022-12-05T10:32:49.055Z,10.48
2022-12-05T10:35:24.658Z,10.64
2022-12-05T10:37:55.840Z,10.83
2022-12-05T10:40:22.951Z,11.20
2022-12-05T10:42:50.660Z,11.53
2022-12-05T10:45:21.753Z,11.58
2022-12-05T10:47:49.985Z,11.56
2022-12-05T10:50:36.087Z,11.71
2022-12-05T10:53:05.293Z,12.00
2022-12-05T10:56:06.559Z,12.30
2022-12-05T10:58:31.628Z,12.31
2022-12-05T11:01:07.535Z,12.39
2022-12-05T11:03:38.003Z,12.12
2022-12-05T11:06:25.621Z,12.26
2022-12-05T11:09:10.041Z,12.46
2022-12-05T11:11:36.786Z,12.89
2022-12-05T11:14:06.480Z,12.97
2022-12-05T11:16:39.218Z,13.03
2022-12-05T11:19:20.102Z,13.13
2022-12-05T11:21:46.587Z,13.18
2022-12-05T11:24:38.972Z,13.06
2022-12-05T11:27:17.853Z,13.12
2022-12-05T11:29:53.951Z,13.31
2022-12-05T11:32:25.953Z,13.50
2022-12-05T11:35:04.768Z,13.71
2022-12-05T11:37:52.024Z,14.00
2022-12-05T11:40:38.649Z,14.22
2022-12-05T11:43:48.227Z,14.27
2022-12-05T11:46:40.634Z,14.16
2022-12-05T11:49:32.241Z,14.09
2022-12-05T11:52:08.558Z,13.60
2022-12-05T11:55:06.448Z,13.27
2022-12-05T11:58:07.555Z,12.96
2022-12-05T12:00:46.394Z,13.04
2022-12-05T12:03:51.135Z,13.12
2022-12-05T12:06:29.078Z,13.26
2022-12-05T12:09:30.594Z,13.39
2022-12-05T12:12:15.781Z,13.22
2022-12-05T12:14:57.672Z,13.33
2022-12-05T12:17:45.172Z,13.34
2022-12-05T12:20:41.907Z,13.78
2022-12-05T12:23:26.255Z,13.37
2022-12-05T12:26:08.172Z,13.41
2022-12-05T12:28:37.642Z,13.43
2022-12-05T12:31:15.517Z,13.49
2022-12-05T12:33:56.006Z,13.70
2022-12-05T12:36:34.254Z,13.97
2022-12-05T12:39:19.542Z,13.97
2022-12-05T12:42:01.407Z,14.06
2022-12-05T12:44:39.995Z,14.23
2022-12-05T12:47:47.544Z,14.46
2022-12-05T12:50:17.707Z,14.59
2022-12-05T12:53:06.934Z,14.79
2022-12-05T12:55:55.390Z,14.43
2022-12-05T12:58:24.636Z,14.30
2022-12-05T13:01:00.431Z,14.30
2022-12-05T13:03:36.566Z,14.31
2022-12-05T13:06:12.998Z,13.76
2022-12-05T13:09:11.635Z,13.62
2022-12-05T13:11:42.029Z,13.62
2022-12-05T13:14:17.105Z,13.63
2022-12-05T13:16:50.388Z,13.55
2022-12-05T13:19:31.258Z,13.57
2022-12-05T13:21:58.495Z,13.49
2022-12-05T13:24:29.071Z,13.47
2022-12-05T13:27:00.535Z,13.65
2022-12-05T13:29:40.995Z,13.78
2022-12-05T13:32:29.937Z,13.90
2022-12-05T13:35:40.021Z,13.29
2022-12-05T13:38:34.825Z,13.05
2022-12-05T13:41:20.260Z,12.78
2022-12-05T13:44:05.497Z,12.92
2022-12-05T13:46:38.741Z,12.77
2022-12-05T13:49:17.459Z,12.50
2022-12-05T13:51:45.345Z,12.71
2022-12-05T13:54:24.074Z,12.88
2022-12-05T13:57:01.529Z,12.84
2022-12-05T14:00:23.877Z,13.02
2022-12-05T14:02:53.222Z,12.92
2022-12-05T14:05:25.168Z,12.96
2022-12-05T14:08:02.243Z,12.85
2022-12-05T14:10:36.175Z,12.81
2022-12-05T14:13:23.757Z,12.45
2022-12-05T14:15:51.878Z,12.07
2022-12-05T14:18:33.290Z,11.90
2022-12-05T14:21:02.993Z,11.53
2022-12-05T14:23:39.107Z,11.49
2022-12-05T14:26:31.969Z,11.38
2022-12-05T14:29:21.775Z,11.56
2022-12-05T14:32:15.985Z,11.67
2022-12-05T14:35:02.262Z,11.55
2022-12-05T14:37:38.765Z,11.83
2022-12-05T14:40:23.681Z,11.92
2022-12-05T14:42:55.930Z,11.85
2022-12-05T14:45:42.729Z,11.95
2022-12-05T14:48:15.031Z,11.88
2022-12-05T14:50:50.771Z,11.99
2022-12-05T14:53:22.876Z,11.99
2022-12-05T14:56:10.271Z,11.87
2022-12-05T14:58:57.703Z,11.81
2022-12-05T15:01:29.732Z,11.41
2022-12-05T15:04:05.239Z,11.32
2022-12-05T15:06:42.953Z,11.49
2022-12-05T15:09:38.079Z,11.47
2022-12-05T15:12:20.910Z,11.26
2022-12-05T15:14:53.972Z,11.13
2022-12-05T15:17:26.985Z,10.99
2022-12-05T15:20:04.053Z,10.91
2022-12-05T15:22:36.543Z,10.74
2022-12-05T15:25:26.461Z,10.55
2022-12-05T15:27:59.026Z,10.39
2022-12-05T15:30:26.968Z,10.26
2022-12-05T15:32:59.274Z,10.00
2022-12-05T15:35:28.807Z,9.78
2022-12-05T15:37:58.341Z,9.61
2022-12-05T15:40:26.215Z,9.40
2022-12-05T15:42:55.531Z,9.30
2022-12-05T15:45:27.251Z,9.16
2022-12-05T15:48:11.689Z,8.91
2022-12-05T15:50:41.075Z,8.82
2022-12-05T15:53:21.271Z,8.68
2022-12-05T15:55:58.952Z,8.43
2022-12-05T15:58:33.570Z,8.19
2022-12-05T16:01:20.401Z,7.94
2022-12-05T16:04:31.355Z,7.76
2022-12-05T16:07:03.084Z,7.59
2022-12-05T16:09:33.618Z,7.45
2022-12-05T16:12:05.926Z,7.32
2022-12-05T16:14:58.811Z,7.13
2022-12-05T16:17:23.951Z,6.90
2022-12-05T16:19:50.681Z,6.80
2022-12-05T16:22:23.144Z,6.69
2022-12-05T16:25:00.901Z,6.60
2022-12-05T16:27:33.101Z,6.54
2022-12-05T16:30:23.304Z,6.56
2022-12-05T16:32:58.393Z,6.51
2022-12-05T16:35:38.771Z,6.44
2022-12-05T16:38:20.259Z,6.21
2022-12-05T16:40:49.981Z,5.98
2022-12-05T16:43:22.733Z,5.84
2022-12-05T16:45:55.147Z,5.79
2022-12-05T16:48:28.654Z,5.75
2022-12-05T16:51:13.656Z,5.64
2022-12-05T16:53:43.108Z,5.56
2022-12-05T16:56:24.560Z,5.60
2022-12-05T16:58:51.587Z,5.49
2022-12-05T17:01:22.927Z,5.27
2022-12-05T17:03:54.356Z,5.33
2022-12-05T17:06:24.080Z,5.27
2022-12-05T17:08:52.077Z,5.13
2022-12-05T17:11:46.292Z,4.92
2022-12-05T17:14:15.028Z,4.86
2022-12-05T17:16:42.447Z,4.79
2022-12-05T17:19:10.798Z,4.77
2022-12-05T17:21:38.910Z,4.68
2022-12-05T17:24:06.187Z,4.59
2022-12-05T17:26:33.209Z,4.55
2022-12-05T17:28:59.721Z,4.52
2022-12-05T17:31:26.497Z,4.42
2022-12-05T17:33:54.277Z,4.33
2022-12-05T17:36:21.295Z,4.47
2022-12-05T17:38:51.021Z,4.59
2022-12-05T17:41:20.405Z,4.49
2022-12-05T17:43:47.519Z,4.35
2022-12-05T17:46:17.258Z,4.20
2022-12-05T17:48:43.868Z,3.97
2022-12-05T17:51:12.982Z,3.90
2022-12-05T17:53:39.527Z,3.50
2022-12-05T17:56:06.574Z,3.25
2022-12-05T17:58:33.542Z,3.21
2022-12-05T18:01:00.961Z,3.35
2022-12-05T18:03:28.031Z,3.39
2022-12-05T18:05:54.599Z,3.53
2022-12-05T18:08:24.052Z,3.64
2022-12-05T18:10:51.613Z,3.57
2022-12-05T18:13:18.572Z,3.67
2022-12-05T18:15:48.306Z,3.44
2022-12-05T18:18:17.299Z,3.38
2022-12-05T18:20:44.252Z,3.44
2022-12-05T18:23:11.044Z,3.30
2022-12-05T18:25:37.771Z,3.42
2022-12-05T18:28:04.493Z,3.39
2022-12-05T18:30:31.084Z,3.27
2022-12-05T18:32:57.621Z,3.04
2022-12-05T18:35:40.430Z,3.17
2022-12-05T18:38:08.852Z,2.99
2022-12-05T18:40:35.586Z,2.66
2022-12-05T18:43:02.356Z,2.66
2022-12-05T18:45:28.939Z,2.68
2022-12-05T18:48:04.600Z,2.80
2022-12-05T18:50:36.770Z,3.03
2022-12-05T18:53:03.661Z,3.10
2022-12-05T18:55:57.944Z,2.80
2022-12-05T18:58:16.824Z,2.77
2022-12-05T19:00:43.495Z,2.70
2022-12-05T19:03:10.033Z,2.63
2022-12-05T19:05:36.534Z,2.39
2022-12-05T19:08:03.307Z,2.29
2022-12-05T19:10:30.199Z,2.58
2022-12-05T19:12:57.211Z,2.47
2022-12-05T19:15:24.677Z,2.36
2022-12-05T19:17:54.225Z,2.50
2022-12-05T19:20:22.744Z,2.50
2022-12-05T19:22:56.371Z,2.49
2022-12-05T19:25:29.442Z,2.50
2022-12-05T19:27:56.110Z,2.42
2022-12-05T19:30:23.011Z,2.34
2022-12-05T19:32:49.539Z,2.33
2022-12-05T19:35:16.098Z,2.30
2022-12-05T19:37:42.673Z,2.34
2022-12-05T19:40:09.742Z,2.44
2022-12-05T19:42:36.271Z,2.39
2022-12-05T19:45:08.128Z,2.24
2022-12-05T19:47:36.191Z,2.26
2022-12-05T19:50:04.133Z,2.39
2022-12-05T19:52:31.414Z,2.25
2022-12-05T19:54:58.657Z,2.05
2022-12-05T19:57:29.822Z,2.06
2022-12-05T19:59:57.957Z,2.26
2022-12-05T20:02:25.537Z,2.12
2022-12-05T20:04:52.165Z,2.14
2022-12-05T20:07:18.950Z,2.07
2022-12-05T20:09:45.614Z,2.11
2022-12-05T20:12:12.477Z,2.21
2022-12-05T20:14:42.180Z,2.20
2022-12-05T20:17:08.824Z,2.19
2022-12-05T20:19:35.456Z,2.01
2022-12-05T20:22:01.941Z,1.89
2022-12-05T20:24:28.550Z,1.87
2022-12-05T20:26:55.069Z,1.74
2022-12-05T20:29:24.283Z,1.66
2022-12-05T20:31:56.776Z,1.64
2022-12-05T20:34:23.429Z,1.62
2022-12-05T20:36:52.118Z,1.56
2022-12-05T20:39:18.689Z,1.55
2022-12-05T20:41:45.738Z,1.77
2022-12-05T20:44:17.092Z,1.62
2022-12-05T20:46:44.026Z,1.59
2022-12-05T20:49:13.349Z,1.77
2022-12-05T20:51:42.451Z,1.55
2022-12-05T20:54:09.062Z,1.47
2022-12-05T20:56:38.614Z,1.50
2022-12-05T20:59:07.171Z,1.46
2022-12-05T21:01:37.613Z,1.45
2022-12-05T21:04:06.888Z,1.33
2022-12-05T21:06:38.397Z,1.11
2022-12-05T21:09:06.875Z,0.91
2022-12-05T21:11:33.379Z,0.94
2022-12-05T21:14:00.554Z,1.07
2022-12-05T21:16:28.221Z,1.18
2022-12-05T21:18:56.096Z,1.11
2022-12-05T21:21:24.974Z,1.05
2022-12-05T21:23:56.091Z,1.11
2022-12-05T21:26:24.729Z,1.23
2022-12-05T21:28:55.643Z,1.33
2022-12-05T21:31:30.896Z,1.23
2022-12-05T21:34:00.304Z,1.26
2022-12-05T21:36:29.355Z,1.30
2022-12-05T21:38:56.646Z,1.34
2022-12-05T21:41:24.904Z,1.37
2022-12-05T21:43:55.757Z,1.27
2022-12-05T21:46:25.776Z,1.24
2022-12-05T21:48:54.368Z,1.25
2022-12-05T21:51:23.976Z,1.22
2022-12-05T21:53:51.144Z,1.25
2022-12-05T21:56:26.371Z,1.37
2022-12-05T21:58:56.903Z,1.38
2022-12-05T22:01:28.540Z,1.31
2022-12-05T22:03:59.521Z,1.26
2022-12-05T22:06:26.946Z,1.25
2022-12-05T22:08:57.785Z,1.33
2022-12-05T22:11:27.484Z,1.34
2022-12-05T22:13:57.709Z,1.35
2022-12-05T22:16:32.757Z,1.32
2022-12-05T22:19:00.717Z,1.14
2022-12-05T22:21:28.084Z,1.27
2022-12-05T22:23:58.312Z,1.28
2022-12-05T22:26:28.057Z,1.37
2022-12-05T22:28:58.676Z,1.49
2022-12-05T22:31:28.257Z,1.45
2022-12-05T22:33:57.433Z,1.40
2022-12-05T22:36:26.512Z,1.43
2022-12-05T22:38:53.021Z,1.37
2022-12-05T22:41:21.739Z,1.40
2022-12-05T22:43:50.050Z,1.37
2022-12-05T22:46:19.652Z,1.34
2022-12-05T22:48:48.084Z,1.24
2022-12-05T22:51:15.357Z,1.07
2022-12-05T22:53:42.428Z,0.98
2022-12-05T22:56:11.491Z,1.03
2022-12-05T22:58:39.213Z,0.99
2022-12-05T23:01:21.251Z,0.81
2022-12-05T23:03:50.018Z,0.71
2022-12-05T23:06:18.133Z,0.70
2022-12-05T23:08:47.719Z,0.56
2022-12-05T23:11:18.288Z,0.49
2022-12-05T23:13:45.345Z,0.40
2022-12-05T23:16:14.650Z,0.56
2022-12-05T23:18:48.421Z,0.36
2022-12-05T23:21:24.318Z,0.46
2022-12-05T23:23:56.415Z,0.47
2022-12-05T23:26:25.430Z,0.74
2022-12-05T23:28:52.794Z,0.95
2022-12-05T23:31:20.191Z,0.92
2022-12-05T23:33:51.087Z,0.83
2022-12-05T23:36:18.624Z,0.76
2022-12-05T23:38:45.207Z,0.87
2022-12-05T23:41:17.787Z,0.93
2022-12-05T23:43:45.095Z,1.06
2022-12-05T23:46:13.927Z,1.02
2022-12-05T23:48:40.962Z,1.06
2022-12-05T23:51:08.893Z,1.04
2022-12-05T23:53:38.900Z,0.94
2022-12-05T23:56:13.240Z,0.77
2022-12-05T23:58:40.238Z,0.71
